Thunder Bay Airport
CYQT : now visible

Airfield :











YOU CAN JOIN US ON...

 
LOGIN :

Register | Disclaimer

   EN    FR    IT 

 









Legend :    VFR   Marginal VFR   IFR   Intensive IFR   Very Intensive IFR
Visi :
Ceiling :
>= 8 km
>= 3000ft
5 to 8 km
1000 to 3000 ft
1500m to 5 km
500 to 1000 ft
800 to 1500m
200 to 500 ft
< 800m
< 200 ft
Symbols :   Thunderstorms  Fog  Heavy snow  Heavy precipitations  Wind > 20 kt






- Airport Elevation : 653 ft
- IATA code : YQT


CYQT - Thunder Bay

CURRENT METAR :
  • 041300Z 24003KT 220V300 20SM FEW160 BKN310 22/17 A3004 RMK ACC1CI5 SLP174 DENSITY ALT 1500FT

EXPIRED METARs :
  • 041200Z 22003KT 20SM FEW160 SCT310 19/16 A3007 RMK AC1CI3 SLP186 DENSITY ALT 1100FT
  • 041100Z 23003KT 20SM FEW190 SCT270 16/16 A3007 RMK AC2CI1 SLP184 DENSITY ALT 800FT

TAF TAF CYQT
Valid from the 04 at 14:00 until the 05 at 02:00 UTC


041338Z 0414/0502 VRB03KT P6SM FEW060 SCT160
TEMPO 0414/0421 P6SM -SHRA
PROB30 0414/0418 2SM TSRA BR BKN020 BKN060CB
FM042100 18012KT P6SM SCT070
PROB30 0421/0424 2SM TSRA BR BKN020 BKN070CB
FM050000 10008KT P6SM SCT080
TEMPO 0500/0502 P6SM -SHRA BKN080 RMK NXT FCST BY 042000Z
CZWG FIR / North America



MET'MAP, your aeronautical weather chart ! - Copyright ORBIFLY December 2007 - Disclaimer

ORBIFLY MET'MAP TEAM :

Programming & Development : Alexandra Zaïnal
Concept & original design : Baudouin d'Aumeries
Assistance for programming : Marc-Olivier Méhu
Technical & hardware support : Manuel Goepfert

Contact : metmap@orbifly.com




SOURCES & CREDITS :

   NOAA       Earth
Advisory